Terminal Aerodrome Forecast
Issued by NWS

Home | Current Version | Previous Version | Text Only | Print | Product List | Glossary On
Versions: 1 2 3 4 5 6 7 8 9 10 11 12 13
000
FTUS41 KBTV 301731
TAFPBG
TAF
KPBG 301731Z 3018/0118 05004KT P6SM -RA OVC090
     FM301900 04004KT P6SM VCSH OVC060
     FM302100 03005KT P6SM OVC050
     FM010400 16004KT P6SM VCSH OVC025
     FM010900 16013KT P6SM VCSH OVC025
     FM011200 16010KT P6SM OVC020=

USA.gov is the U.S. government's official web portal to all federal, state and local government web resources and services.